createdAt,value
2022-10-11T00:01:34.685Z,94754.44
2022-10-11T00:04:01.282Z,94756.56
2022-10-11T00:06:27.670Z,94753.47
2022-10-11T00:08:54.057Z,94755.00
2022-10-11T00:11:20.453Z,94747.00
2022-10-11T00:13:46.821Z,94747.00
2022-10-11T00:16:15.241Z,94748.34
2022-10-11T00:18:42.225Z,94748.34
2022-10-11T00:21:13.063Z,94742.81
2022-10-11T00:23:40.888Z,94743.00
2022-10-11T00:26:09.386Z,94739.31
2022-10-11T00:28:36.783Z,94736.59
2022-10-11T00:31:08.015Z,94731.34
2022-10-11T00:33:34.935Z,94738.13
2022-10-11T00:36:02.187Z,94743.69
2022-10-11T00:38:31.611Z,94746.28
2022-10-11T00:40:58.400Z,94741.84
2022-10-11T00:43:27.754Z,94737.34
2022-10-11T00:45:57.268Z,94737.84
2022-10-11T00:48:29.450Z,94741.25
2022-10-11T00:51:00.029Z,94736.00
2022-10-11T00:53:30.305Z,94728.63
2022-10-11T00:56:06.986Z,94737.53
2022-10-11T00:58:36.235Z,94740.16
2022-10-11T01:01:03.308Z,94746.75
2022-10-11T01:03:31.480Z,94739.97
2022-10-11T01:05:57.910Z,94745.50
2022-10-11T01:08:24.813Z,94745.50
2022-10-11T01:10:52.053Z,94747.06
2022-10-11T01:13:31.510Z,94744.25
2022-10-11T01:16:11.373Z,94747.94
2022-10-11T01:19:17.362Z,94743.19
2022-10-11T01:21:50.463Z,94744.25
2022-10-11T01:24:16.779Z,94738.25
2022-10-11T01:27:01.858Z,94740.38
2022-10-11T01:29:46.308Z,94741.28
2022-10-11T01:32:17.513Z,94745.25
2022-10-11T01:34:46.549Z,94738.00
2022-10-11T01:37:34.310Z,94741.28
2022-10-11T01:40:17.019Z,94738.00
2022-10-11T01:42:44.042Z,94736.00
2022-10-11T01:45:15.598Z,94743.06
2022-10-11T01:47:42.566Z,94733.19
2022-10-11T01:50:49.189Z,94746.28
2022-10-11T01:53:40.066Z,94736.84
2022-10-11T01:56:12.397Z,94748.69
2022-10-11T01:58:51.362Z,94739.78
2022-10-11T02:01:33.558Z,94746.84
2022-10-11T02:04:06.503Z,94746.84
2022-10-11T02:06:38.015Z,94745.00
2022-10-11T02:09:27.441Z,94746.84
2022-10-11T02:12:00.270Z,94749.47
2022-10-11T02:14:32.338Z,94751.03
2022-10-11T02:17:07.720Z,94749.16
2022-10-11T02:19:47.379Z,94745.50
2022-10-11T02:22:20.409Z,94749.94
2022-10-11T02:24:51.610Z,94747.91
2022-10-11T02:27:20.918Z,94754.13
2022-10-11T02:29:49.798Z,94758.88
2022-10-11T02:32:17.497Z,94757.78
2022-10-11T02:35:02.902Z,94747.31
2022-10-11T02:37:44.454Z,94758.31
2022-10-11T02:40:21.431Z,94752.28
2022-10-11T02:43:17.495Z,94758.47
2022-10-11T02:45:49.674Z,94763.44
2022-10-11T02:48:16.684Z,94768.09
2022-10-11T02:50:43.718Z,94765.94
2022-10-11T02:53:10.421Z,94767.47
2022-10-11T02:55:36.929Z,94765.34
2022-10-11T02:58:03.749Z,94763.00
2022-10-11T03:00:30.477Z,94770.47
2022-10-11T03:02:56.914Z,94776.97
2022-10-11T03:05:23.297Z,94773.47
2022-10-11T03:07:49.697Z,94775.50
2022-10-11T03:10:16.259Z,94774.91
2022-10-11T03:12:42.794Z,94776.16
2022-10-11T03:15:09.640Z,94771.69
2022-10-11T03:17:37.134Z,94782.97
2022-10-11T03:20:05.377Z,94784.78
2022-10-11T03:22:31.746Z,94787.41
2022-10-11T03:25:02.712Z,94784.50
2022-10-11T03:27:30.339Z,94787.88
2022-10-11T03:29:57.012Z,94788.38
2022-10-11T03:32:23.421Z,94789.94
2022-10-11T03:34:49.776Z,94796.72
2022-10-11T03:37:16.499Z,94793.63
2022-10-11T03:39:42.953Z,94798.88
2022-10-11T03:42:09.319Z,94792.84
2022-10-11T03:44:35.704Z,94799.34
2022-10-11T03:47:02.095Z,94803.50
2022-10-11T03:49:28.454Z,94802.91
2022-10-11T03:51:54.865Z,94800.28
2022-10-11T03:54:21.414Z,94801.84
2022-10-11T03:56:47.807Z,94805.44
2022-10-11T03:59:14.233Z,94810.38
2022-10-11T04:01:40.662Z,94813.78
2022-10-11T04:04:07.072Z,94804.06
2022-10-11T04:06:33.521Z,94812.69
2022-10-11T04:09:00.243Z,94811.63
2022-10-11T04:11:26.978Z,94801.72
2022-10-11T04:13:53.526Z,94816.88
2022-10-11T04:16:19.901Z,94818.44
2022-10-11T04:18:46.282Z,94816.28
2022-10-11T04:21:12.745Z,94815.50
2022-10-11T04:23:39.107Z,94806.56
2022-10-11T04:26:07.442Z,94810.72
2022-10-11T04:28:34.874Z,94814.44
2022-10-11T04:31:01.373Z,94804.06
2022-10-11T04:33:27.760Z,94810.84
2022-10-11T04:35:55.455Z,94806.03
2022-10-11T04:38:22.405Z,94805.25
2022-10-11T04:40:48.853Z,94810.59
2022-10-11T04:43:16.677Z,94807.19
2022-10-11T04:45:43.522Z,94813.97
2022-10-11T04:48:10.108Z,94816.13
2022-10-11T04:50:37.189Z,94819.81
2022-10-11T04:53:07.286Z,94819.31
2022-10-11T04:55:33.642Z,94813.31
2022-10-11T04:58:00.207Z,94819.44
2022-10-11T05:00:27.412Z,94820.41
2022-10-11T05:02:54.052Z,94831.63
2022-10-11T05:05:20.460Z,94832.41
2022-10-11T05:07:46.857Z,94838.75
2022-10-11T05:10:13.266Z,94842.09
2022-10-11T05:12:39.661Z,94842.09
2022-10-11T05:15:06.982Z,94837.66
2022-10-11T05:17:33.689Z,94834.25
2022-10-11T05:20:00.063Z,94845.22
2022-10-11T05:22:26.452Z,94836.59
2022-10-11T05:24:52.859Z,94847.66
2022-10-11T05:27:19.360Z,94851.63
2022-10-11T05:29:45.782Z,94845.41
2022-10-11T05:32:12.173Z,94851.44
2022-10-11T05:34:38.519Z,94853.78
2022-10-11T05:37:04.982Z,94856.09
2022-10-11T05:39:32.271Z,94852.41
2022-10-11T05:41:58.677Z,94860.28
2022-10-11T05:44:25.189Z,94851.63
2022-10-11T05:46:51.617Z,94867.53
2022-10-11T05:49:17.962Z,94874.31
2022-10-11T05:51:44.334Z,94866.66
2022-10-11T05:54:10.715Z,94874.22
2022-10-11T05:56:37.255Z,94867.91
2022-10-11T05:59:05.046Z,94870.53
2022-10-11T06:01:32.062Z,94865.59
2022-10-11T06:03:58.520Z,94882.00
2022-10-11T06:06:24.960Z,94882.00
2022-10-11T06:08:51.380Z,94876.75
2022-10-11T06:11:20.888Z,94884.63
2022-10-11T06:13:47.605Z,94880.91
2022-10-11T06:16:14.518Z,94883.25
2022-10-11T06:18:40.948Z,94880.63
2022-10-11T06:21:07.437Z,94882.66
2022-10-11T06:23:33.934Z,94885.75
2022-10-11T06:26:03.332Z,94891.19
2022-10-11T06:28:30.119Z,94893.03
2022-10-11T06:30:57.229Z,94895.34
2022-10-11T06:33:24.507Z,94897.38
2022-10-11T06:35:57.717Z,94900.78
2022-10-11T06:38:24.120Z,94908.06
2022-10-11T06:40:50.622Z,94903.06
2022-10-11T06:43:17.031Z,94904.78
2022-10-11T06:45:43.429Z,94906.50
2022-10-11T06:48:09.874Z,94914.88
2022-10-11T06:50:58.618Z,94907.50
2022-10-11T06:53:24.784Z,94915.44
2022-10-11T06:55:51.197Z,94911.63
2022-10-11T06:58:17.693Z,94918.13
2022-10-11T07:00:44.194Z,94921.81
2022-10-11T07:03:10.598Z,94925.81
2022-10-11T07:05:37.015Z,94926.09
2022-10-11T07:08:03.538Z,94929.03
2022-10-11T07:10:29.905Z,94937.16
2022-10-11T07:12:56.266Z,94931.91
2022-10-11T07:15:22.880Z,94934.53
2022-10-11T07:17:49.266Z,94939.19
2022-10-11T07:20:15.644Z,94937.34
2022-10-11T07:22:42.042Z,94943.38
2022-10-11T07:25:08.712Z,94933.69
2022-10-11T07:27:35.081Z,94939.38
2022-10-11T07:30:01.550Z,94937.75
2022-10-11T07:32:27.913Z,94941.63
2022-10-11T07:34:54.343Z,94945.31
2022-10-11T07:37:20.717Z,94942.56
2022-10-11T07:39:49.037Z,94946.75
2022-10-11T07:42:15.417Z,94942.28
2022-10-11T07:44:41.882Z,94939.09
2022-10-11T07:47:11.286Z,94945.47
2022-10-11T07:49:38.107Z,94944.75
2022-10-11T07:52:04.901Z,94941.44
2022-10-11T07:54:32.681Z,94949.19
2022-10-11T07:56:59.204Z,94944.41
2022-10-11T07:59:25.605Z,94941.78
2022-10-11T08:01:51.997Z,94944.59
2022-10-11T08:04:18.431Z,94943.88
2022-10-11T08:06:44.823Z,94949.19
2022-10-11T08:09:12.138Z,94947.69
2022-10-11T08:11:39.306Z,94946.50
2022-10-11T08:14:08.890Z,94949.31
2022-10-11T08:16:36.596Z,94948.25
2022-10-11T08:19:03.322Z,94946.13
2022-10-11T08:21:30.499Z,94941.66
2022-10-11T08:23:57.029Z,94953.78
2022-10-11T08:26:24.485Z,94953.72
2022-10-11T08:28:50.908Z,94955.56
2022-10-11T08:31:17.392Z,94955.56
2022-10-11T08:33:44.390Z,94963.16
2022-10-11T08:36:11.645Z,94961.13
2022-10-11T08:38:38.856Z,94962.19
2022-10-11T08:41:19.016Z,94965.28
2022-10-11T08:43:58.160Z,94964.63
2022-10-11T08:46:33.519Z,94965.72
2022-10-11T08:49:01.317Z,94963.56
2022-10-11T08:51:35.613Z,94966.00
2022-10-11T08:54:21.225Z,94971.16
2022-10-11T08:56:48.454Z,94956.94
2022-10-11T08:59:30.605Z,94977.22
2022-10-11T09:02:49.331Z,94977.34
2022-10-11T09:05:18.951Z,94968.81
2022-10-11T09:08:00.230Z,94970.78
2022-10-11T09:10:35.916Z,94980.34
2022-10-11T09:13:30.976Z,94975.84
2022-10-11T09:16:18.736Z,94978.06
2022-10-11T09:19:00.497Z,94971.25
2022-10-11T09:21:59.341Z,94968.47
2022-10-11T09:24:53.554Z,94978.66
2022-10-11T09:27:57.329Z,94975.44
2022-10-11T09:30:18.133Z,94972.81
2022-10-11T09:32:51.134Z,94971.56
2022-10-11T09:35:20.422Z,94971.56
2022-10-11T09:37:55.639Z,94977.41
2022-10-11T09:40:40.265Z,94974.91
2022-10-11T09:43:09.142Z,94974.91
2022-10-11T09:45:35.605Z,94980.94
2022-10-11T09:48:05.337Z,94978.19
2022-10-11T09:50:32.840Z,94980.22
2022-10-11T09:53:03.153Z,94983.78
2022-10-11T09:55:40.757Z,94984.88
2022-10-11T09:58:35.245Z,94989.63
2022-10-11T10:01:11.177Z,94988.88
2022-10-11T10:03:42.820Z,94985.94
2022-10-11T10:06:16.507Z,94990.41
2022-10-11T10:08:45.354Z,94988.50
2022-10-11T10:11:12.257Z,94986.19
2022-10-11T10:13:47.792Z,94990.06
2022-10-11T10:16:21.949Z,94985.28
2022-10-11T10:19:05.544Z,94985.94
2022-10-11T10:21:35.639Z,94983.50
2022-10-11T10:24:08.668Z,94978.31
2022-10-11T10:26:35.218Z,94987.81
2022-10-11T10:29:10.347Z,94976.13
2022-10-11T10:32:12.993Z,94980.47
2022-10-11T10:34:37.179Z,94983.47
2022-10-11T10:37:15.515Z,94984.06
2022-10-11T10:39:46.832Z,94984.13
2022-10-11T10:42:18.843Z,94988.13
2022-10-11T10:44:52.965Z,94981.53
2022-10-11T10:47:54.621Z,94989.28
2022-10-11T10:50:59.092Z,94981.88
2022-10-11T10:53:39.856Z,94997.16
2022-10-11T10:56:12.236Z,94994.03
2022-10-11T10:59:04.914Z,94987.25
2022-10-11T11:01:47.539Z,94983.53
2022-10-11T11:04:31.485Z,94989.75
2022-10-11T11:07:10.281Z,94990.34
2022-10-11T11:10:00.484Z,94985.28
2022-10-11T11:12:45.902Z,94995.00
2022-10-11T11:15:31.306Z,94988.78
2022-10-11T11:18:25.827Z,94988.19
2022-10-11T11:21:41.696Z,94988.03
2022-10-11T11:24:31.098Z,94989.75
2022-10-11T11:27:16.965Z,94984.97
2022-10-11T11:30:08.302Z,94981.75
2022-10-11T11:32:57.957Z,94977.72
2022-10-11T11:35:30.799Z,94972.78
2022-10-11T11:38:33.863Z,94968.78
2022-10-11T11:41:09.130Z,94967.72
2022-10-11T11:43:39.780Z,94961.81
2022-10-11T11:46:17.649Z,94954.59
2022-10-11T11:48:44.478Z,94955.56
2022-10-11T11:51:30.669Z,94954.22
2022-10-11T11:54:09.951Z,94954.09
2022-10-11T11:56:54.409Z,94952.53
2022-10-11T11:59:26.015Z,94954.09
2022-10-11T12:02:12.857Z,94956.72
2022-10-11T12:04:43.873Z,94948.25
2022-10-11T12:07:17.784Z,94959.03
2022-10-11T12:09:50.573Z,94959.97
2022-10-11T12:12:28.962Z,94958.41
2022-10-11T12:15:05.283Z,94964.41
2022-10-11T12:17:32.085Z,94957.31
2022-10-11T12:20:09.684Z,94962.25
2022-10-11T12:23:00.459Z,94953.28
2022-10-11T12:25:26.828Z,94962.25
2022-10-11T12:27:56.628Z,94947.22
2022-10-11T12:30:46.925Z,94956.81
2022-10-11T12:33:23.905Z,94958.81
2022-10-11T12:35:53.343Z,94950.94
2022-10-11T12:38:29.652Z,94953.88
2022-10-11T12:41:21.488Z,94955.28
2022-10-11T12:43:47.857Z,94943.84
2022-10-11T12:46:57.484Z,94947.75
2022-10-11T12:49:42.251Z,94947.03
2022-10-11T12:52:22.785Z,94947.22
2022-10-11T12:55:07.796Z,94950.19
2022-10-11T12:58:08.640Z,94950.63
2022-10-11T13:01:04.188Z,94948.44
2022-10-11T13:03:35.163Z,94943.03
2022-10-11T13:06:12.270Z,94944.41
2022-10-11T13:08:43.140Z,94935.75
2022-10-11T13:11:16.966Z,94935.56
2022-10-11T13:14:10.966Z,94937.41
2022-10-11T13:17:06.567Z,94938.19
2022-10-11T13:19:36.301Z,94935.09
2022-10-11T13:22:13.763Z,94934.91
2022-10-11T13:24:41.172Z,94936.13
2022-10-11T13:27:08.027Z,94931.97
2022-10-11T13:29:44.808Z,94937.09
2022-10-11T13:32:16.307Z,94939.53
2022-10-11T13:34:46.931Z,94936.59
2022-10-11T13:37:19.116Z,94932.88
2022-10-11T13:39:47.018Z,94927.44
2022-10-11T13:42:15.774Z,94935.50
2022-10-11T13:44:43.960Z,94929.19
2022-10-11T13:47:14.440Z,94932.59
2022-10-11T13:49:46.512Z,94934.72
2022-10-11T13:52:22.397Z,94936.09
2022-10-11T13:55:04.049Z,94932.41
2022-10-11T13:57:49.643Z,94930.72
2022-10-11T14:00:17.139Z,94919.84
2022-10-11T14:02:49.739Z,94924.94
2022-10-11T14:05:26.537Z,94924.59
2022-10-11T14:07:53.354Z,94922.25
2022-10-11T14:10:22.065Z,94924.41
2022-10-11T14:13:05.250Z,94926.69
2022-10-11T14:15:36.797Z,94933.50
2022-10-11T14:18:38.262Z,94931.63
2022-10-11T14:21:33.205Z,94930.19
2022-10-11T14:24:02.689Z,94933.91
2022-10-11T14:26:36.283Z,94939.16
2022-10-11T14:29:07.985Z,94941.31
2022-10-11T14:31:41.500Z,94936.66
2022-10-11T14:34:13.666Z,94930.16
2022-10-11T14:36:40.086Z,94935.22
2022-10-11T14:39:13.515Z,94933.69
2022-10-11T14:41:41.163Z,94932.13
2022-10-11T14:44:07.536Z,94925.31
2022-10-11T14:46:35.910Z,94933.69
2022-10-11T14:49:02.350Z,94929.03
2022-10-11T14:51:34.421Z,94924.84
2022-10-11T14:54:00.814Z,94927.47
2022-10-11T14:56:27.229Z,94926.53
2022-10-11T14:58:54.650Z,94924.81
2022-10-11T15:01:21.382Z,94928.03
2022-10-11T15:03:47.917Z,94932.41
2022-10-11T15:06:21.675Z,94935.13
2022-10-11T15:08:48.153Z,94932.00
2022-10-11T15:11:17.783Z,94932.91
2022-10-11T15:13:44.822Z,94932.44
2022-10-11T15:16:13.210Z,94938.94
2022-10-11T15:18:39.699Z,94927.84
2022-10-11T15:21:06.359Z,94930.94
2022-10-11T15:23:33.330Z,94929.59
2022-10-11T15:25:59.729Z,94934.72
2022-10-11T15:28:31.305Z,94927.16
2022-10-11T15:30:58.390Z,94927.75
2022-10-11T15:33:25.635Z,94927.84
2022-10-11T15:35:52.351Z,94933.28
2022-10-11T15:38:21.401Z,94933.00
2022-10-11T15:40:49.273Z,94931.44
2022-10-11T15:43:18.763Z,94920.25
2022-10-11T15:45:47.629Z,94928.91
2022-10-11T15:48:16.028Z,94922.41
2022-10-11T15:50:42.521Z,94923.19
2022-10-11T15:53:21.063Z,94920.56
2022-10-11T15:55:53.085Z,94917.44
2022-10-11T15:58:24.956Z,94910.78
2022-10-11T16:00:54.278Z,94910.28
2022-10-11T16:03:22.840Z,94909.81
2022-10-11T16:05:49.300Z,94910.88
2022-10-11T16:08:16.071Z,94907.19
2022-10-11T16:10:42.918Z,94911.66
2022-10-11T16:13:10.688Z,94911.47
2022-10-11T16:15:38.657Z,94907.31
2022-10-11T16:18:06.237Z,94908.38
2022-10-11T16:20:32.820Z,94915.19
2022-10-11T16:22:59.477Z,94912.09
2022-10-11T16:25:25.922Z,94917.34
2022-10-11T16:27:52.326Z,94918.59
2022-10-11T16:30:19.268Z,94919.47
2022-10-11T16:32:45.915Z,94916.84
2022-10-11T16:35:13.985Z,94924.25
2022-10-11T16:37:40.613Z,94924.38
2022-10-11T16:40:08.843Z,94917.22
2022-10-11T16:42:35.375Z,94924.63
2022-10-11T16:45:01.752Z,94926.75
2022-10-11T16:47:28.110Z,94928.91
2022-10-11T16:49:54.552Z,94931.06
2022-10-11T16:52:21.120Z,94937.38
2022-10-11T16:54:48.370Z,94938.44
2022-10-11T16:57:17.138Z,94939.19
2022-10-11T16:59:43.936Z,94934.53
2022-10-11T17:02:32.078Z,94942.91
2022-10-11T17:04:59.046Z,94937.94
2022-10-11T17:07:25.862Z,94937.47
2022-10-11T17:09:52.317Z,94935.91
2022-10-11T17:12:22.405Z,94935.75
2022-10-11T17:14:49.966Z,94935.16
2022-10-11T17:17:17.778Z,94938.06
2022-10-11T17:19:45.572Z,94941.75
2022-10-11T17:22:15.090Z,94938.97
2022-10-11T17:24:41.773Z,94935.38
2022-10-11T17:27:08.420Z,94940.63
2022-10-11T17:29:35.008Z,94934.59
2022-10-11T17:32:01.629Z,94937.53
2022-10-11T17:34:29.214Z,94936.53
2022-10-11T17:36:55.668Z,94938.88
2022-10-11T17:39:23.556Z,94936.25
2022-10-11T17:41:50.310Z,94928.22
2022-10-11T17:44:17.976Z,94933.69
2022-10-11T17:46:45.041Z,94942.50
2022-10-11T17:49:11.900Z,94941.22
2022-10-11T17:51:39.734Z,94936.09
2022-10-11T17:54:06.657Z,94948.25
2022-10-11T17:56:37.711Z,94939.09
2022-10-11T17:59:04.589Z,94934.47
2022-10-11T18:01:31.257Z,94936.13
2022-10-11T18:04:00.136Z,94945.16
2022-10-11T18:06:30.500Z,94940.88
2022-10-11T18:09:00.815Z,94941.72
2022-10-11T18:11:27.354Z,94940.19
2022-10-11T18:13:54.136Z,94938.94
2022-10-11T18:16:24.132Z,94933.19
2022-10-11T18:18:50.537Z,94933.19
2022-10-11T18:21:18.649Z,94932.44
2022-10-11T18:23:45.798Z,94937.97
2022-10-11T18:26:15.715Z,94931.66
2022-10-11T18:28:43.225Z,94929.03
2022-10-11T18:31:21.416Z,94914.09
2022-10-11T18:33:50.639Z,94924.84
2022-10-11T18:36:20.161Z,94919.91
2022-10-11T18:38:48.948Z,94915.25
2022-10-11T18:41:18.331Z,94924.66
2022-10-11T18:43:49.987Z,94922.03
2022-10-11T18:46:16.441Z,94904.50
2022-10-11T18:48:44.526Z,94928.63
2022-10-11T18:51:14.876Z,94929.22
2022-10-11T18:53:41.576Z,94925.53
2022-10-11T18:56:10.295Z,94928.16
2022-10-11T18:58:37.355Z,94936.03
2022-10-11T19:01:18.657Z,94936.50
2022-10-11T19:03:45.817Z,94933.41
2022-10-11T19:06:17.657Z,94936.13
2022-10-11T19:08:45.975Z,94933.28
2022-10-11T19:11:13.358Z,94936.69
2022-10-11T19:13:40.209Z,94933.41
2022-10-11T19:16:09.308Z,94931.75
2022-10-11T19:18:39.366Z,94937.47
2022-10-11T19:21:12.560Z,94933.09
2022-10-11T19:23:42.185Z,94930.41
2022-10-11T19:26:14.078Z,94925.16
2022-10-11T19:28:41.121Z,94928.25
2022-10-11T19:31:10.152Z,94930.41
2022-10-11T19:33:36.869Z,94933.03
2022-10-11T19:36:05.671Z,94930.88
2022-10-11T19:38:34.209Z,94923.03
2022-10-11T19:41:02.080Z,94930.41
2022-10-11T19:43:28.442Z,94928.84
2022-10-11T19:46:07.484Z,94921.34
2022-10-11T19:48:37.529Z,94935.44
2022-10-11T19:51:09.313Z,94939.13
2022-10-11T19:53:36.481Z,94930.97
2022-10-11T19:56:08.476Z,94933.59
2022-10-11T19:58:34.841Z,94932.03
2022-10-11T20:01:02.353Z,94927.84
2022-10-11T20:03:28.891Z,94930.00
2022-10-11T20:05:55.476Z,94933.41
2022-10-11T20:08:23.169Z,94938.16
2022-10-11T20:10:49.537Z,94943.97
2022-10-11T20:13:15.931Z,94940.38
2022-10-11T20:15:42.323Z,94940.66
2022-10-11T20:18:09.065Z,94950.84
2022-10-11T20:20:35.495Z,94944.84
2022-10-11T20:23:01.864Z,94946.38
2022-10-11T20:25:28.246Z,94949.88
2022-10-11T20:27:54.668Z,94949.09
2022-10-11T20:30:21.111Z,94945.69
2022-10-11T20:32:47.472Z,94946.47
2022-10-11T20:35:13.894Z,94942.81
2022-10-11T20:37:40.252Z,94947.47
2022-10-11T20:40:07.162Z,94945.03
2022-10-11T20:42:33.521Z,94946.28
2022-10-11T20:44:59.946Z,94950.00
2022-10-11T20:47:26.301Z,94950.00
2022-10-11T20:49:52.648Z,94950.00
2022-10-11T20:52:19.007Z,94945.03
2022-10-11T20:54:45.407Z,94945.31
2022-10-11T20:57:11.845Z,94943.19
2022-10-11T20:59:38.291Z,94944.44
2022-10-11T21:02:05.185Z,94943.41
2022-10-11T21:04:31.552Z,94947.84
2022-10-11T21:06:57.964Z,94944.19
2022-10-11T21:09:24.366Z,94938.94
2022-10-11T21:11:50.732Z,94942.91
2022-10-11T21:14:17.232Z,94946.28
2022-10-11T21:16:43.734Z,94944.75
2022-10-11T21:19:13.286Z,94946.09
2022-10-11T21:21:39.722Z,94939.31
2022-10-11T21:24:06.385Z,94940.09
2022-10-11T21:26:32.924Z,94939.31
2022-10-11T21:28:59.452Z,94938.31
2022-10-11T21:31:29.738Z,94931.44
2022-10-11T21:34:00.253Z,94937.47
2022-10-11T21:36:26.854Z,94929.97
2022-10-11T21:38:53.486Z,94935.13
2022-10-11T21:41:22.362Z,94937.16
2022-10-11T21:43:49.377Z,94939.50
2022-10-11T21:46:20.455Z,94936.59
2022-10-11T21:48:49.788Z,94933.69
2022-10-11T21:51:24.744Z,94938.16
2022-10-11T21:53:51.791Z,94930.88
2022-10-11T21:56:18.761Z,94920.88
2022-10-11T21:58:48.912Z,94926.09
2022-10-11T22:01:16.455Z,94930.28
2022-10-11T22:03:43.251Z,94922.13
2022-10-11T22:06:10.039Z,94930.78
2022-10-11T22:08:36.575Z,94928.72
2022-10-11T22:11:03.478Z,94929.03
2022-10-11T22:13:31.628Z,94924.53
2022-10-11T22:16:00.935Z,94928.72
2022-10-11T22:18:30.898Z,94920.41
2022-10-11T22:21:15.020Z,94925.41
2022-10-11T22:23:44.263Z,94922.31
2022-10-11T22:26:25.772Z,94920.50
2022-10-11T22:28:53.259Z,94909.03
2022-10-11T22:31:20.584Z,94916.41
2022-10-11T22:33:47.286Z,94912.53
2022-10-11T22:36:16.735Z,94920.38
2022-10-11T22:38:44.006Z,94917.75
2022-10-11T22:41:10.884Z,94918.53
2022-10-11T22:43:37.369Z,94912.72
2022-10-11T22:46:05.075Z,94907.50
2022-10-11T22:48:31.705Z,94914.75
2022-10-11T22:50:58.078Z,94914.75
2022-10-11T22:53:24.428Z,94917.97
2022-10-11T22:55:50.965Z,94922.41
2022-10-11T22:58:17.377Z,94922.22
2022-10-11T23:00:43.810Z,94917.56
2022-10-11T23:03:14.439Z,94919.13
2022-10-11T23:05:41.088Z,94918.59
2022-10-11T23:08:09.369Z,94922.31
2022-10-11T23:10:39.920Z,94919.97
2022-10-11T23:13:06.400Z,94921.03
2022-10-11T23:15:32.848Z,94915.50
2022-10-11T23:17:59.304Z,94918.59
2022-10-11T23:20:25.672Z,94912.31
2022-10-11T23:22:52.125Z,94910.97
2022-10-11T23:25:18.488Z,94908.34
2022-10-11T23:27:44.902Z,94910.75
2022-10-11T23:30:12.236Z,94915.50
2022-10-11T23:32:38.597Z,94908.81
2022-10-11T23:35:05.876Z,94909.38
2022-10-11T23:37:32.245Z,94918.09
2022-10-11T23:39:58.732Z,94907.94
2022-10-11T23:42:25.077Z,94911.59
2022-10-11T23:44:52.857Z,94909.75
2022-10-11T23:47:19.290Z,94906.56
2022-10-11T23:49:45.705Z,94909.69
2022-10-11T23:52:12.077Z,94908.63
2022-10-11T23:54:38.451Z,94913.56
2022-10-11T23:57:04.905Z,94911.25
2022-10-11T23:59:31.329Z,94916.25
